Time;durP1;ratioP1;P1;durP2;ratioP2;P2;SDS_P1;SDS_P2;PMS_P1;PMS_P2;Temp;Humidity;BMP_temperature;BMP_pressure;BME280_temperature;BME280_humidity;BME280_pressure;Samples;Min_cycle;Max_cycle;Signal;HPM_P1;HPM_P2
2023/01/24 00:01:48;;;;;;;44.98;22.17;;;;;;;;;;1902227;75;21123;-46
2023/01/24 00:04:16;;;;;;;44.67;20.82;;;;;;;;;;1902307;75;21045;-45
2023/01/24 00:06:45;;;;;;;45.30;22.60;;;;;;;;;;1902280;75;21008;-45
2023/01/24 00:09:13;;;;;;;47.90;21.40;;;;;;;;;;1902249;75;21092;-45
2023/01/24 00:11:42;;;;;;;44.77;22.27;;;;;;;;;;1902187;75;21098;-45
2023/01/24 00:14:11;;;;;;;54.33;22.70;;;;;;;;;;1902396;75;21060;-45
2023/01/24 00:16:39;;;;;;;41.95;21.50;;;;;;;;;;1902275;75;21106;-45
2023/01/24 00:19:08;;;;;;;49.27;23.40;;;;;;;;;;1902266;75;21025;-45
2023/01/24 00:21:36;;;;;;;47.08;21.75;;;;;;;;;;1910524;75;21052;-45
2023/01/24 00:24:05;;;;;;;40.48;21.12;;;;;;;;;;1914918;75;21055;-45
2023/01/24 00:26:34;;;;;;;44.98;22.10;;;;;;;;;;1914899;75;21125;-45
2023/01/24 00:29:02;;;;;;;38.40;21.02;;;;;;;;;;1914904;75;21079;-45
2023/01/24 00:31:30;;;;;;;47.40;22.13;;;;;;;;;;1914933;75;21004;-45
2023/01/24 00:33:59;;;;;;;50.80;22.75;;;;;;;;;;1914910;75;21134;-45
2023/01/24 00:36:27;;;;;;;48.78;22.67;;;;;;;;;;1914977;75;21028;-45
2023/01/24 00:38:56;;;;;;;46.88;20.68;;;;;;;;;;1914873;75;21051;-46
2023/01/24 00:41:26;;;;;;;51.63;22.05;;;;;;;;;;1914796;75;21446;-45
2023/01/24 00:43:55;;;;;;;49.13;24.82;;;;;;;;;;1914901;75;21119;-44
2023/01/24 00:46:23;;;;;;;37.08;20.35;;;;;;;;;;1914900;75;21113;-45
2023/01/24 00:48:52;;;;;;;42.53;21.20;;;;;;;;;;1914919;75;21044;-46
2023/01/24 00:51:21;;;;;;;49.42;22.30;;;;;;;;;;1914855;75;21044;-46
2023/01/24 00:53:49;;;;;;;42.25;19.87;;;;;;;;;;1915094;75;21119;-45
2023/01/24 00:56:18;;;;;;;48.45;20.62;;;;;;;;;;1914869;75;21074;-45
2023/01/24 00:58:47;;;;;;;35.52;19.98;;;;;;;;;;1914933;75;21098;-45
2023/01/24 01:01:16;;;;;;;42.23;21.65;;;;;;;;;;1914856;75;21040;-45
2023/01/24 01:03:46;;;;;;;44.77;21.42;;;;;;;;;;1914900;75;21059;-44
2023/01/24 01:06:15;;;;;;;48.55;21.40;;;;;;;;;;1914750;75;21044;-45
2023/01/24 01:08:43;;;;;;;43.00;20.65;;;;;;;;;;1914778;75;21083;-45
2023/01/24 01:11:14;;;;;;;36.70;20.45;;;;;;;;;;1914730;75;21614;-45
2023/01/24 01:13:42;;;;;;;42.65;21.90;;;;;;;;;;1914780;75;21036;-44
2023/01/24 01:16:12;;;;;;;51.80;22.42;;;;;;;;;;1914754;75;21102;-44
2023/01/24 01:18:41;;;;;;;49.10;22.58;;;;;;;;;;1914828;75;21088;-45
2023/01/24 01:21:11;;;;;;;43.33;20.02;;;;;;;;;;1911207;75;21071;-46
2023/01/24 01:23:40;;;;;;;44.18;21.23;;;;;;;;;;1902152;75;21009;-45
2023/01/24 01:26:09;;;;;;;35.83;20.55;;;;;;;;;;1902216;75;21115;-46
2023/01/24 01:28:38;;;;;;;45.50;19.98;;;;;;;;;;1902152;75;21032;-46
2023/01/24 01:31:07;;;;;;;41.30;21.42;;;;;;;;;;1902073;75;21045;-45
2023/01/24 01:33:35;;;;;;;58.10;21.62;;;;;;;;;;1902243;75;21312;-45
2023/01/24 01:36:04;;;;;;;51.25;23.83;;;;;;;;;;1902118;75;21107;-45
2023/01/24 01:38:32;;;;;;;39.48;22.60;;;;;;;;;;1902113;75;21049;-47
2023/01/24 01:41:01;;;;;;;44.23;22.15;;;;;;;;;;1902203;75;21035;-45
2023/01/24 01:43:29;;;;;;;46.42;21.23;;;;;;;;;;1902104;75;21045;-45
2023/01/24 01:46:03;;;;;;;48.40;24.18;;;;;;;;;;1902250;75;21158;-46
2023/01/24 01:48:33;;;;;;;54.67;24.72;;;;;;;;;;1901153;75;21021;-46
2023/01/24 01:51:20;;;;;;;48.42;22.65;;;;;;;;;;1902251;75;21057;-45
2023/01/24 01:53:47;;;;;;;46.45;22.15;;;;;;;;;;1901058;75;21048;-45
2023/01/24 01:56:16;;;;;;;53.75;22.42;;;;;;;;;;1902214;75;21016;-45
2023/01/24 01:58:45;;;;;;;55.95;23.32;;;;;;;;;;1900411;75;21132;-45
2023/01/24 02:01:14;;;;;;;39.83;20.05;;;;;;;;;;1902214;75;21021;-48
2023/01/24 02:03:46;;;;;;;47.70;22.62;;;;;;;;;;1902263;75;21033;-45
2023/01/24 02:06:19;;;;;;;45.43;23.07;;;;;;;;;;1902003;75;21025;-45
2023/01/24 02:08:49;;;;;;;55.40;23.12;;;;;;;;;;1898438;75;21102;-45
2023/01/24 02:16:51;;;;;;;59.93;23.02;;;;;;;;;;1902070;75;21048;-45
2023/01/24 02:19:21;;;;;;;64.85;24.75;;;;;;;;;;1902106;75;21058;-45
2023/01/24 02:21:51;;;;;;;65.67;26.25;;;;;;;;;;1902647;75;21055;-45
2023/01/24 02:24:20;;;;;;;66.95;25.17;;;;;;;;;;1914756;75;21097;-45
2023/01/24 02:26:49;;;;;;;79.70;27.05;;;;;;;;;;1913933;75;21078;-45
2023/01/24 02:29:17;;;;;;;74.07;26.93;;;;;;;;;;1914731;75;21049;-45
2023/01/24 02:31:54;;;;;;;119.22;29.23;;;;;;;;;;1914702;75;21102;-45
2023/01/24 02:34:23;;;;;;;87.25;24.18;;;;;;;;;;1914725;75;21016;-45
2023/01/24 02:36:53;;;;;;;99.03;25.92;;;;;;;;;;1914694;75;21040;-46
2023/01/24 02:39:23;;;;;;;71.55;21.77;;;;;;;;;;1914707;75;21502;-46
2023/01/24 02:41:52;;;;;;;59.23;22.15;;;;;;;;;;1914671;75;20988;-45
2023/01/24 02:44:22;;;;;;;86.85;23.18;;;;;;;;;;1913908;75;21145;-45
2023/01/24 02:46:51;;;;;;;68.72;21.62;;;;;;;;;;1912848;75;21477;-46
2023/01/24 02:49:19;;;;;;;81.85;22.55;;;;;;;;;;1914707;75;21126;-44
2023/01/24 02:54:34;;;;;;;93.85;21.23;;;;;;;;;;1914655;75;21123;-45
2023/01/24 02:59:49;;;;;;;55.92;21.73;;;;;;;;;;1914773;75;21048;-44
2023/01/24 03:02:18;;;;;;;43.92;21.37;;;;;;;;;;1914773;75;21322;-45
2023/01/24 03:04:46;;;;;;;102.22;24.77;;;;;;;;;;1914756;75;21092;-45
2023/01/24 03:07:15;;;;;;;61.30;22.42;;;;;;;;;;1914824;75;21122;-45
2023/01/24 03:09:49;;;;;;;85.00;21.85;;;;;;;;;;1914592;75;21064;-45
2023/01/24 03:34:33;;;;;;;73.57;24.98;;;;;;;;;;1914924;75;21498;-44
2023/01/24 03:37:01;;;;;;;87.53;25.48;;;;;;;;;;1914921;75;21043;-45
2023/01/24 03:42:17;;;;;;;71.55;24.23;;;;;;;;;;1914781;75;21149;-45
2023/01/24 03:44:47;;;;;;;52.27;21.87;;;;;;;;;;1914439;75;21072;-45
2023/01/24 03:47:16;;;;;;;64.30;23.98;;;;;;;;;;1914779;75;21106;-44
2023/01/24 03:52:32;;;;;;;62.50;22.93;;;;;;;;;;1914806;75;21023;-45
2023/01/24 03:55:02;;;;;;;64.37;22.02;;;;;;;;;;1914537;75;21072;-46
2023/01/24 03:57:31;;;;;;;58.45;20.95;;;;;;;;;;1914827;75;21056;-45
2023/01/24 04:00:01;;;;;;;53.42;19.90;;;;;;;;;;1914641;75;21146;-45
2023/01/24 04:02:31;;;;;;;116.30;34.03;;;;;;;;;;1914796;75;21043;-47
2023/01/24 04:05:15;;;;;;;80.35;25.95;;;;;;;;;;1914899;75;21044;-45
2023/01/24 04:07:44;;;;;;;;;;;;;;;;;;1917842;75;21020;-45
2023/01/24 04:10:13;;;;;;;54.73;20.08;;;;;;;;;;1914902;75;20364;-45
2023/01/24 04:12:44;;;;;;;51.80;19.23;;;;;;;;;;1914869;75;21095;-45
2023/01/24 04:15:14;;;;;;;55.65;21.10;;;;;;;;;;1914881;75;21040;-47
2023/01/24 04:17:44;;;;;;;55.23;19.75;;;;;;;;;;1913116;75;21043;-45
2023/01/24 04:20:14;;;;;;;57.15;18.90;;;;;;;;;;1914953;75;21040;-46
2023/01/24 04:22:44;;;;;;;71.37;21.25;;;;;;;;;;1910850;75;21053;-45
2023/01/24 04:25:13;;;;;;;71.97;27.62;;;;;;;;;;1902344;75;21008;-46
2023/01/24 04:27:42;;;;;;;92.02;27.82;;;;;;;;;;1902267;75;21040;-44
2023/01/24 04:30:13;;;;;;;85.32;24.40;;;;;;;;;;1902065;75;21055;-47
2023/01/24 04:32:42;;;;;;;115.60;24.10;;;;;;;;;;1902384;75;21090;-46
2023/01/24 04:35:20;;;;;;;112.35;24.35;;;;;;;;;;1901500;75;21044;-45
2023/01/24 04:37:53;;;;;;;61.77;19.62;;;;;;;;;;1902230;75;21020;-45
2023/01/24 04:40:26;;;;;;;48.35;19.15;;;;;;;;;;1901918;75;21110;-45
2023/01/24 04:42:56;;;;;;;57.10;19.73;;;;;;;;;;1902349;75;21005;-45
2023/01/24 04:45:25;;;;;;;61.25;21.77;;;;;;;;;;1902356;75;21110;-45
2023/01/24 04:47:55;;;;;;;49.30;21.15;;;;;;;;;;1902294;75;21107;-45
2023/01/24 04:50:24;;;;;;;61.08;21.17;;;;;;;;;;1902249;75;21082;-44
2023/01/24 04:52:53;;;;;;;50.90;19.05;;;;;;;;;;1902380;75;21013;-45
2023/01/24 04:55:22;;;;;;;49.73;21.42;;;;;;;;;;1902166;75;21009;-45
2023/01/24 04:57:52;;;;;;;42.43;19.07;;;;;;;;;;1902287;75;21045;-45
2023/01/24 05:00:20;;;;;;;51.92;19.87;;;;;;;;;;1902313;75;21092;-45
2023/01/24 05:02:51;;;;;;;54.20;21.20;;;;;;;;;;1902206;75;21037;-46
2023/01/24 05:05:20;;;;;;;41.75;19.67;;;;;;;;;;1902332;75;21504;-46
2023/01/24 05:07:49;;;;;;;57.15;19.67;;;;;;;;;;1902222;75;21110;-45
2023/01/24 05:10:21;;;;;;;75.57;21.70;;;;;;;;;;1902224;75;21106;-45
2023/01/24 05:12:49;;;;;;;42.50;19.62;;;;;;;;;;1902209;75;21493;-45
2023/01/24 05:15:21;;;;;;;50.17;19.30;;;;;;;;;;1901153;75;21055;-45
2023/01/24 05:17:49;;;;;;;60.63;21.00;;;;;;;;;;1902230;75;21451;-45
2023/01/24 05:20:20;;;;;;;63.13;20.27;;;;;;;;;;1902058;75;21055;-45
2023/01/24 05:22:49;;;;;;;63.30;22.42;;;;;;;;;;1902272;75;21091;-45
2023/01/24 05:25:23;;;;;;;52.45;19.32;;;;;;;;;;1902207;75;21049;-47
2023/01/24 05:27:48;;;;;;;60.38;21.45;;;;;;;;;;1901330;75;21565;-46
2023/01/24 05:30:17;;;;;;;45.38;19.52;;;;;;;;;;1902197;75;21096;-47
2023/01/24 05:32:46;;;;;;;62.10;28.70;;;;;;;;;;1902192;75;21041;-45
2023/01/24 05:35:16;;;;;;;69.72;23.70;;;;;;;;;;1902237;75;21111;-45
2023/01/24 05:37:45;;;;;;;52.23;21.93;;;;;;;;;;1902387;75;21044;-45
2023/01/24 05:40:15;;;;;;;77.40;23.38;;;;;;;;;;1902169;75;21091;-46
2023/01/24 05:42:44;;;;;;;60.80;21.05;;;;;;;;;;1902271;75;21009;-45
2023/01/24 05:45:13;;;;;;;61.10;24.82;;;;;;;;;;1902308;75;21032;-45
2023/01/24 05:47:42;;;;;;;55.38;21.10;;;;;;;;;;1902219;75;21111;-45
2023/01/24 05:50:12;;;;;;;63.98;21.50;;;;;;;;;;1902212;75;21124;-45
2023/01/24 05:52:42;;;;;;;66.72;23.18;;;;;;;;;;1902286;75;21044;-45
2023/01/24 05:55:11;;;;;;;60.65;24.07;;;;;;;;;;1902291;75;21149;-44
2023/01/24 05:57:41;;;;;;;87.85;23.85;;;;;;;;;;1902132;75;21040;-45
2023/01/24 06:00:26;;;;;;;58.75;23.98;;;;;;;;;;1901969;75;21048;-45
2023/01/24 06:03:11;;;;;;;53.98;20.85;;;;;;;;;;1881082;75;21044;-44
2023/01/24 06:05:40;;;;;;;52.13;21.27;;;;;;;;;;1902306;75;21064;-45
2023/01/24 06:08:09;;;;;;;52.88;22.02;;;;;;;;;;1902214;75;21041;-45
2023/01/24 06:10:38;;;;;;;61.30;23.80;;;;;;;;;;1902313;75;21078;-46
2023/01/24 06:13:08;;;;;;;77.85;24.07;;;;;;;;;;1902155;75;21087;-44
2023/01/24 06:15:37;;;;;;;62.20;23.38;;;;;;;;;;1902170;75;21078;-45
2023/01/24 06:18:06;;;;;;;69.67;23.32;;;;;;;;;;1902321;75;21103;-45
2023/01/24 06:20:35;;;;;;;103.65;25.37;;;;;;;;;;1902079;75;21036;-46
2023/01/24 06:23:05;;;;;;;87.80;25.02;;;;;;;;;;1902665;75;21044;-45
2023/01/24 06:25:35;;;;;;;67.10;27.20;;;;;;;;;;1914732;75;21080;-45
2023/01/24 06:28:04;;;;;;;68.10;25.15;;;;;;;;;;1914782;75;21098;-46
2023/01/24 06:30:32;;;;;;;57.80;23.42;;;;;;;;;;1914934;75;21037;-46
2023/01/24 06:33:05;;;;;;;71.62;27.27;;;;;;;;;;1914937;75;21040;-45
2023/01/24 06:35:35;;;;;;;64.77;27.17;;;;;;;;;;1913776;75;21087;-45
2023/01/24 06:38:04;;;;;;;67.25;24.63;;;;;;;;;;1914790;75;21102;-44
2023/01/24 06:40:32;;;;;;;77.75;28.12;;;;;;;;;;1914851;75;21040;-45
2023/01/24 06:43:01;;;;;;;52.90;24.02;;;;;;;;;;1914939;75;21017;-44
2023/01/24 06:45:29;;;;;;;59.75;25.35;;;;;;;;;;1914872;75;21036;-46
2023/01/24 06:47:58;;;;;;;64.65;27.42;;;;;;;;;;1914887;75;21102;-44
2023/01/24 06:50:31;;;;;;;80.67;27.15;;;;;;;;;;1914880;75;21040;-45
2023/01/24 06:52:57;;;;;;;56.08;24.25;;;;;;;;;;1914890;75;21539;-46
2023/01/24 06:55:25;;;;;;;57.35;24.20;;;;;;;;;;1914895;75;21030;-44
2023/01/24 06:58:01;;;;;;;78.30;26.93;;;;;;;;;;1914893;75;21086;-44
2023/01/24 07:00:29;;;;;;;71.40;24.72;;;;;;;;;;1914801;75;21514;-45
2023/01/24 07:03:02;;;;;;;108.80;26.95;;;;;;;;;;1914903;75;21109;-44
2023/01/24 07:05:31;;;;;;;63.17;24.50;;;;;;;;;;1914875;75;21089;-44
2023/01/24 12:19:13;;;;;;;38.10;20.43;;;4.80;85.70;;;;;;1924341;74;28012;-58
2023/01/24 12:21:43;;;;;;;47.03;22.22;;;5.00;87.20;;;;;;1849557;77;21128;-59
2023/01/24 12:24:14;;;;;;;49.50;21.62;;;5.00;86.30;;;;;;1885414;76;21085;-59
2023/01/24 12:26:52;;;;;;;37.90;20.23;;;4.90;86.70;;;;;;1884855;75;21066;-59
2023/01/24 12:29:30;;;;;;;45.10;19.87;;;4.90;86.60;;;;;;1885108;76;21093;-59
2023/01/24 12:32:19;;;;;;;30.57;15.90;;;4.80;86.30;;;;;;1885202;76;21092;-59
2023/01/24 12:35:17;;;;;;;33.75;17.32;;;4.80;87.20;;;;;;1885164;75;21046;-57
2023/01/24 12:37:54;;;;;;;35.60;18.07;;;4.70;86.90;;;;;;1885099;76;21038;-58
2023/01/24 12:40:26;;;;;;;36.05;20.27;;;4.70;87.50;;;;;;1885030;76;21058;-58
2023/01/24 12:43:13;;;;;;;34.88;17.02;;;4.80;87.40;;;;;;1883369;76;21104;-58
2023/01/24 12:45:45;;;;;;;35.80;19.25;;;4.80;87.30;;;;;;1885247;75;21046;-58
2023/01/24 12:48:17;;;;;;;46.37;21.75;;;4.80;87.70;;;;;;1884687;76;21129;-58
2023/01/24 12:51:01;;;;;;;41.13;21.48;;;4.80;87.70;;;;;;1885097;75;21109;-57
2023/01/24 12:53:54;;;;;;;37.25;20.12;;;4.90;87.80;;;;;;1884943;76;21132;-57
2023/01/24 12:56:26;;;;;;;37.88;18.30;;;5.00;87.50;;;;;;1885057;75;21084;-58
2023/01/24 12:58:56;;;;;;;40.23;21.52;;;5.00;87.50;;;;;;1885160;76;20983;-58
2023/01/24 13:01:37;;;;;;;46.48;21.40;;;5.00;87.00;;;;;;1885062;76;21023;-57
2023/01/24 13:04:43;;;;;;;39.35;19.95;;;5.00;87.20;;;;;;1885170;76;21058;-58
2023/01/24 13:07:21;;;;;;;43.80;21.77;;;5.00;87.50;;;;;;1884678;76;21058;-57
2023/01/24 13:09:59;;;;;;;43.65;19.98;;;5.00;87.40;;;;;;1885142;75;21022;-57
2023/01/24 13:12:29;;;;;;;41.60;20.48;;;5.00;87.20;;;;;;1885096;75;21051;-57
2023/01/24 13:15:01;;;;;;;41.00;18.42;;;5.00;87.40;;;;;;1885233;76;20991;-57
2023/01/24 13:17:45;;;;;;;45.52;21.05;;;5.10;87.70;;;;;;1887276;76;21127;-57
2023/01/24 13:20:24;;;;;;;40.50;20.12;;;5.10;87.20;;;;;;1893987;76;21127;-57
2023/01/24 13:23:11;;;;;;;39.18;20.60;;;5.10;87.20;;;;;;1891805;75;21148;-57
2023/01/24 13:25:49;;;;;;;44.73;20.17;;;5.00;87.20;;;;;;1892893;75;21112;-57
2023/01/24 13:28:32;;;;;;;34.90;19.07;;;5.00;87.00;;;;;;1892913;75;21038;-57
2023/01/24 13:31:08;;;;;;;43.10;21.45;;;4.90;87.50;;;;;;1893771;75;21148;-57
2023/01/24 13:33:52;;;;;;;45.67;21.23;;;4.90;87.80;;;;;;1893808;75;21036;-58
2023/01/24 13:36:24;;;;;;;49.55;22.75;;;5.00;88.20;;;;;;1893967;76;21049;-58
2023/01/24 13:38:53;;;;;;;40.67;20.92;;;5.10;88.30;;;;;;1893963;76;21054;-58
2023/01/24 13:41:31;;;;;;;46.73;22.50;;;5.10;88.10;;;;;;1893927;76;21401;-58
2023/01/24 13:44:12;;;;;;;54.20;25.37;;;5.20;88.10;;;;;;1894012;76;21062;-58
2023/01/24 13:46:47;;;;;;;46.30;21.95;;;5.20;88.10;;;;;;1891871;75;21526;-58
2023/01/24 13:49:31;;;;;;;40.00;20.80;;;5.20;87.80;;;;;;1894156;76;21440;-58
2023/01/24 13:52:01;;;;;;;44.73;21.77;;;5.20;87.90;;;;;;1894130;76;20990;-57
2023/01/24 13:54:41;;;;;;;43.60;23.35;;;5.20;88.30;;;;;;1894114;75;21030;-57
2023/01/24 13:57:19;;;;;;;41.35;21.90;;;5.30;88.50;;;;;;1894097;76;21492;-58
2023/01/24 14:00:09;;;;;;;43.28;21.30;;;5.30;88.70;;;;;;1894042;75;21010;-57
2023/01/24 14:02:53;;;;;;;40.05;20.27;;;5.30;88.90;;;;;;1809990;78;21074;-57
2023/01/24 14:05:39;;;;;;;42.93;22.87;;;5.40;88.80;;;;;;1809663;79;21090;-57
2023/01/24 14:08:29;;;;;;;47.27;23.55;;;5.40;88.80;;;;;;1860762;75;21164;-57
2023/01/24 14:11:10;;;;;;;47.95;20.45;;;5.40;89.60;;;;;;1894066;76;21076;-57
2023/01/24 14:13:54;;;;;;;41.95;22.10;;;5.40;89.20;;;;;;1894050;76;21003;-57
2023/01/24 14:16:33;;;;;;;40.47;20.20;;;5.40;89.20;;;;;;1894312;76;21519;-57
2023/01/24 14:19:17;;;;;;;48.48;23.18;;;5.50;89.20;;;;;;1893052;75;21519;-57
2023/01/24 14:22:04;;;;;;;47.58;20.10;;;;;;;;;;1893999;76;21031;-57
2023/01/24 14:24:34;;;;;;;60.33;23.67;;;;;;;;;;1894191;76;21084;-57
2023/01/24 14:27:04;;;;;;;44.60;23.05;;;;;;;;;;1894013;76;21120;-57
2023/01/24 14:29:40;;;;;;;58.83;24.67;;;;;;;;;;1892319;75;21065;-57
2023/01/24 14:32:26;;;;;;;74.62;29.35;;;;;;;;;;1894045;76;21022;-57
2023/01/24 14:34:59;;;;;;;81.20;29.87;;;;;;;;;;1893967;76;21014;-57
2023/01/24 14:37:27;;;;;;;109.25;29.65;;;;;;;;;;1893878;75;21018;-57
2023/01/24 14:39:57;;;;;;;65.83;27.07;;;;;;;;;;1894017;76;21120;-57
2023/01/24 14:42:27;;;;;;;75.85;33.60;;;;;;;;;;1892408;75;21542;-57
2023/01/24 14:44:57;;;;;;;66.02;27.85;;;;;;;;;;1894108;76;21010;-57
2023/01/24 14:47:28;;;;;;;68.67;29.98;;;;;;;;;;1893977;76;21042;-57
2023/01/24 14:50:02;;;;;;;64.65;25.60;;;;;;;;;;1893919;75;21022;-57
2023/01/24 14:52:34;;;;;;;60.43;27.85;;;;;;;;;;1894329;76;21038;-57
2023/01/24 14:55:04;;;;;;;73.72;27.93;;;;;;;;;;1894080;75;21037;-57
2023/01/24 14:57:33;;;;;;;47.45;25.95;;;;;;;;;;1892823;75;21108;-57
2023/01/24 15:00:03;;;;;;;44.08;25.80;;;;;;;;;;1894135;76;21101;-57
2023/01/24 15:02:32;;;;;;;60.03;27.73;;;;;;;;;;1891028;76;21014;-57
2023/01/24 15:05:01;;;;;;;77.47;29.02;;;;;;;;;;1894056;76;21006;-58
2023/01/24 15:07:30;;;;;;;60.23;28.85;;;;;;;;;;1893962;76;21504;-58
2023/01/24 15:09:58;;;;;;;54.90;27.22;;;;;;;;;;1894091;74;21030;-57
2023/01/24 15:12:31;;;;;;;59.20;28.10;;;;;;;;;;1894012;76;21022;-57
2023/01/24 15:15:01;;;;;;;58.15;27.52;;;;;;;;;;1894227;76;21144;-58
2023/01/24 15:17:30;;;;;;;66.28;28.87;;;;;;;;;;1893955;76;21010;-57
2023/01/24 15:19:59;;;;;;;60.95;29.92;;;;;;;;;;1893949;75;21554;-57
2023/01/24 15:22:29;;;;;;;72.50;31.17;;;;;;;;;;1894079;76;21098;-57
2023/01/24 15:24:58;;;;;;;74.77;29.50;;;;;;;;;;1894157;76;21002;-58
2023/01/24 15:27:31;;;;;;;76.47;30.68;;;;;;;;;;1894069;76;21019;-57
2023/01/24 15:30:07;;;;;;;67.75;28.55;;;;;;;;;;1894140;76;21038;-58
2023/01/24 15:32:38;;;;;;;64.97;27.67;;;;;;;;;;1894096;75;21168;-58
2023/01/24 15:35:25;;;;;;;54.80;27.62;;;;;;;;;;1894131;75;21158;-58
2023/01/24 15:38:11;;;;;;;67.85;29.72;;;;;;;;;;1894056;76;21062;-57
2023/01/24 15:40:50;;;;;;;58.10;26.90;;;;;;;;;;1894093;76;21164;-58
2023/01/24 15:48:58;;;;;;;53.30;22.75;;;;;;;;;;1894051;75;21524;-57
2023/01/24 15:51:34;;;;;;;55.35;21.90;;;;;;;;;;1893744;75;21054;-57
2023/01/24 15:54:04;;;;;;;45.85;21.82;;;;;;;;;;1894118;75;21542;-58
2023/01/24 15:56:32;;;;;;;47.23;20.23;;;;;;;;;;1893620;75;21142;-58
2023/01/24 15:59:01;;;;;;;46.05;22.05;;;;;;;;;;1894177;76;21100;-58
2023/01/24 16:01:30;;;;;;;40.12;20.95;;;;;;;;;;1894173;76;21030;-58
2023/01/24 16:04:00;;;;;;;49.63;21.70;;;;;;;;;;1894048;76;21054;-57
2023/01/24 16:06:28;;;;;;;67.17;25.23;;;;;;;;;;1892858;75;21054;-58
2023/01/24 16:08:57;;;;;;;53.23;24.47;;;;;;;;;;1894189;76;21019;-57
2023/01/24 16:11:25;;;;;;;60.40;25.17;;;;;;;;;;1894056;76;21038;-58
2023/01/24 16:13:55;;;;;;;66.33;28.00;;;;;;;;;;1894066;76;21110;-57
2023/01/24 16:16:24;;;;;;;51.55;24.77;;;;;;;;;;1894020;76;21136;-57
2023/01/24 16:18:52;;;;;;;59.60;27.58;;;;;;;;;;1889443;76;21059;-57
2023/01/24 16:21:21;;;;;;;58.30;26.05;;;;;;;;;;1872537;77;21172;-58
2023/01/24 16:23:49;;;;;;;51.77;26.75;;;;;;;;;;1872679;77;21019;-57
2023/01/24 16:26:25;;;;;;;63.00;28.32;;;;;;;;;;1872635;77;21063;-57
2023/01/24 16:28:53;;;;;;;61.13;27.73;;;;;;;;;;1872503;77;21192;-58
2023/01/24 16:31:22;;;;;;;68.87;28.90;;;;;;;;;;1872545;77;21031;-58
2023/01/24 16:33:51;;;;;;;62.53;30.05;;;;;;;;;;1872660;77;21051;-58
2023/01/24 16:36:19;;;;;;;66.65;28.38;;;;;;;;;;1872545;77;21051;-58
2023/01/24 16:38:48;;;;;;;64.22;25.95;;;;;;;;;;1872508;77;21099;-58
2023/01/24 16:41:16;;;;;;;70.78;28.90;;;;;;;;;;1872562;77;21019;-58
2023/01/24 16:43:45;;;;;;;55.88;29.27;;;;;;;;;;1872650;77;21011;-58
2023/01/24 16:46:22;;;;;;;71.60;31.30;;;;;;;;;;1872530;77;21139;-58
2023/01/24 16:48:50;;;;;;;71.17;32.75;;;;;;;;;;1872493;77;21136;-58
2023/01/24 16:51:19;;;;;;;62.62;31.33;;;;;;;;;;1872536;77;21039;-58
2023/01/24 16:53:48;;;;;;;67.22;34.83;;;;;;;;;;1872578;77;21165;-58
2023/01/24 16:56:16;;;;;;;72.87;33.48;;;;;;;;;;1872644;77;21169;-58
2023/01/24 16:58:45;;;;;;;63.20;33.67;;;;;;;;;;1872835;77;21201;-58
2023/01/24 17:01:13;;;;;;;76.57;34.38;;;;;;;;;;1872761;77;21110;-58
2023/01/24 17:03:42;;;;;;;82.85;34.75;;;;;;;;;;1872794;77;21158;-58
2023/01/24 17:06:11;;;;;;;81.75;31.45;;;;;;;;;;1872850;77;21081;-58
2023/01/24 17:08:40;;;;;;;77.92;32.28;;;;;;;;;;1872636;77;21043;-58
2023/01/24 17:11:10;;;;;;;74.10;28.30;;;;;;;;;;1872714;77;21141;-58
2023/01/24 17:13:38;;;;;;;70.37;30.65;;;;;;;;;;1872638;77;21103;-58
2023/01/24 17:16:08;;;;;;;76.00;33.15;;;;;;;;;;1872700;77;21153;-58
2023/01/24 17:18:37;;;;;;;65.75;31.97;;;;;;;;;;1872619;77;21003;-58
2023/01/24 17:21:07;;;;;;;82.88;32.15;;;;;;;;;;1892069;76;21116;-58
2023/01/24 17:23:41;;;;;;;77.03;31.50;;;;;;;;;;1894297;76;21026;-58
2023/01/24 17:26:07;;;;;;;74.42;31.90;;;;;;;;;;1892286;75;21488;-58
2023/01/24 17:28:36;;;;;;;70.52;28.85;;;;;;;;;;1894148;76;21097;-58
2023/01/24 17:31:09;;;;;;;64.35;29.37;;;;;;;;;;1894178;76;21081;-58
2023/01/24 17:33:37;;;;;;;78.92;30.00;;;;;;;;;;1894265;76;21006;-58
2023/01/24 17:36:06;;;;;;;76.97;31.12;;;;;;;;;;1894126;76;21146;-58
2023/01/24 17:38:35;;;;;;;73.62;30.97;;;;;;;;;;1894174;76;21022;-58
2023/01/24 17:41:04;;;;;;;81.63;31.68;;;;;;;;;;1894148;76;21085;-58
2023/01/24 17:43:32;;;;;;;73.92;30.02;;;;;;;;;;1894215;76;20990;-58
2023/01/24 17:46:01;;;;;;;61.37;29.67;;;;;;;;;;1894164;76;21062;-58
2023/01/24 17:48:29;;;;;;;69.67;28.70;;;;;;;;;;1894261;76;21169;-58
2023/01/24 17:50:58;;;;;;;62.95;29.20;;;;;;;;;;1894271;76;21074;-58
2023/01/24 17:53:27;;;;;;;66.47;29.18;;;;;;;;;;1894310;76;21104;-58
2023/01/24 17:55:55;;;;;;;58.38;26.00;;;;;;;;;;1894259;76;21034;-58
2023/01/24 17:58:24;;;;;;;74.17;30.25;;;;;;;;;;1894347;76;21054;-58
2023/01/24 18:00:52;;;;;;;57.48;27.30;;;;;;;;;;1894223;76;21022;-58
2023/01/24 18:03:24;;;;;;;69.45;28.62;;;;;;;;;;1894093;75;21096;-58
2023/01/24 18:05:53;;;;;;;65.12;30.35;;;;;;;;;;1894026;76;21078;-58
2023/01/24 18:08:24;;;;;;;64.60;27.22;;;;;;;;;;1894055;75;21022;-58
2023/01/24 18:10:53;;;;;;;63.15;28.05;;;;;;;;;;1894169;75;21078;-58
2023/01/24 18:13:22;;;;;;;55.30;28.35;;;;;;;;;;1893999;76;21123;-58
2023/01/24 18:16:00;;;;;;;54.98;28.70;;;;;;;;;;1894044;76;21164;-58
2023/01/24 18:18:32;;;;;;;55.75;25.88;;;;;;;;;;1894049;76;21031;-58
2023/01/24 18:20:59;;;;;;;62.50;28.73;;;;;;;;;;1893465;75;21143;-58
2023/01/24 18:23:27;;;;;;;55.48;25.88;;;;;;;;;;1894061;75;21091;-58
2023/01/24 18:25:57;;;;;;;66.00;27.35;;;;;;;;;;1893991;76;21154;-58
2023/01/24 18:28:25;;;;;;;51.48;27.82;;;;;;;;;;1893899;75;21121;-58
2023/01/24 18:30:54;;;;;;;60.98;26.07;;;;;;;;;;1894048;76;21195;-58
2023/01/24 18:33:22;;;;;;;58.45;26.65;;;;;;;;;;1894020;76;21155;-58
2023/01/24 18:35:51;;;;;;;49.05;23.57;;;;;;;;;;1894148;76;21010;-58
2023/01/24 18:38:20;;;;;;;47.25;25.68;;;;;;;;;;1894024;76;21019;-58
2023/01/24 18:40:49;;;;;;;52.17;24.60;;;;;;;;;;1894030;76;21062;-58
2023/01/24 18:43:18;;;;;;;51.33;26.23;;;;;;;;;;1894041;76;21035;-58
2023/01/24 18:45:46;;;;;;;54.05;26.17;;;;;;;;;;1894119;76;21144;-58
2023/01/24 18:48:15;;;;;;;64.58;26.85;;;;;;;;;;1894020;76;21100;-58
2023/01/24 18:50:43;;;;;;;54.75;28.42;;;;;;;;;;1893998;76;21034;-58
2023/01/24 18:53:12;;;;;;;58.48;26.23;;;;;;;;;;1894062;76;21010;-58
2023/01/24 18:55:40;;;;;;;71.45;27.75;;;;;;;;;;1894057;75;21007;-58
2023/01/24 18:58:08;;;;;;;64.22;26.75;;;;;;;;;;1894144;75;21070;-59
2023/01/24 19:00:37;;;;;;;59.95;28.65;;;;;;;;;;1894275;76;21018;-58
2023/01/24 19:03:05;;;;;;;54.27;25.30;;;;;;;;;;1894355;76;21096;-59
2023/01/24 19:05:34;;;;;;;63.30;25.65;;;;;;;;;;1894203;76;21216;-58
2023/01/24 19:08:02;;;;;;;58.70;26.95;;;;;;;;;;1894152;75;21018;-58
2023/01/24 19:10:31;;;;;;;51.50;25.60;;;;;;;;;;1894223;76;21089;-58
2023/01/24 19:12:59;;;;;;;66.75;28.38;;;;;;;;;;1894164;75;21042;-59
2023/01/24 19:15:28;;;;;;;57.43;27.67;;;;;;;;;;1894220;75;21034;-58
2023/01/24 19:17:57;;;;;;;53.58;26.50;;;;;;;;;;1894090;75;21185;-59
2023/01/24 19:20:26;;;;;;;63.58;28.17;;;;;;;;;;1894076;75;21112;-58
2023/01/24 19:22:54;;;;;;;44.70;24.20;;;;;;;;;;1894141;76;21078;-58
2023/01/24 19:25:22;;;;;;;60.80;27.30;;;;;;;;;;1894111;76;21093;-58
2023/01/24 19:27:51;;;;;;;54.65;25.85;;;;;;;;;;1894073;76;21160;-58
2023/01/24 19:30:20;;;;;;;48.17;23.45;;;;;;;;;;1894060;76;21083;-58
2023/01/24 19:32:49;;;;;;;51.02;24.18;;;;;;;;;;1894224;76;21072;-58
2023/01/24 19:35:18;;;;;;;49.53;27.37;;;;;;;;;;1894129;76;21102;-58
2023/01/24 19:37:51;;;;;;;49.98;26.87;;;;;;;;;;1894099;76;21038;-58
2023/01/24 19:40:17;;;;;;;50.55;26.00;;;;;;;;;;1893789;75;21634;-58
2023/01/24 19:42:46;;;;;;;56.65;29.15;;;;;;;;;;1894077;76;21066;-58
2023/01/24 19:45:18;;;;;;;56.90;28.27;;;;;;;;;;1894164;76;21603;-58
2023/01/24 19:47:46;;;;;;;59.75;27.30;;;;;;;;;;1894202;76;21094;-58
2023/01/24 19:50:15;;;;;;;59.75;29.10;;;;;;;;;;1894200;76;21050;-58
2023/01/24 19:52:44;;;;;;;54.25;25.00;;;;;;;;;;1894306;76;21033;-58
2023/01/24 19:55:12;;;;;;;49.45;27.45;;;;;;;;;;1894075;76;21240;-58
2023/01/24 19:57:41;;;;;;;63.70;28.23;;;;;;;;;;1894051;75;21038;-58
2023/01/24 20:00:10;;;;;;;61.53;30.88;;;;;;;;;;1894024;76;21068;-58
2023/01/24 20:02:38;;;;;;;50.28;26.80;;;;;;;;;;1894122;75;21038;-58
2023/01/24 20:05:07;;;;;;;57.83;27.87;;;;;;;;;;1894071;76;21023;-58
2023/01/24 20:07:35;;;;;;;49.45;26.82;;;;;;;;;;1894044;76;21164;-58
2023/01/24 20:10:04;;;;;;;45.75;25.50;;;;;;;;;;1894016;76;21142;-57
2023/01/24 20:12:33;;;;;;;53.63;26.05;;;;;;;;;;1894113;76;21085;-57
2023/01/24 20:15:01;;;;;;;54.63;28.07;;;;;;;;;;1894057;76;21031;-57
2023/01/24 20:17:30;;;;;;;54.05;29.12;;;;;;;;;;1894122;76;21216;-57
2023/01/24 20:19:58;;;;;;;52.83;29.23;;;;;;;;;;1894050;76;21042;-57